• Join FlightAware (Why Join?)
  • Login
  • US Flag 
Rudolph Flight #1: Arrived! 
03:01PM EST


 

Airport Tracker/Info


-or-


 

Live Flight TrackerFlight Track Log ✈ SWA542 ✈ 14-Apr-2013 ✈ KLAS - KSEA

Flight Track Log - Related Links

Times and Time Zones

All times are in EDT time to prevent confusion due to time zone crossing. See the SWA542 flight status page for this flight to view local times or setup timezone preferences in your user account.

Time Position Orientation Groundspeed Altitude Reporting Facility
EDT Latitude Longitude Course Direction KTS MPH feet Rate Location/Type
06:31PM 36.0667 -115.1739 209° Southwest 165 190 3,500  Level Los Angeles Center
06:33PM 36.0083 -115.2144 209° Southwest 224 258 5,800 1,680 Climbing Los Angeles Center
06:34PM 35.9756 -115.2917 242° Southwest 278 320 7,100 1,560 Climbing Los Angeles Center
06:35PM 35.9231 -115.3592 226° Southwest 275 316 8,700 1,560 Climbing Los Angeles Center
06:35PM 35.9178 -115.3653 223° Southwest 271 312 9,100 2,220 Climbing Los Angeles Center
06:36PM 35.8856 -115.4456 244° Southwest 314 361 11,000 1,800 Climbing Los Angeles Center
06:36PM 35.8856 -115.4544 270° West 294 338 11,000 2,940 Level Los Angeles Center
06:37PM 35.8897 -115.5906 272° West 350 403 14,800 3,600 Climbing Los Angeles Center
06:38PM 35.8917 -115.7233 271° West 361 415 18,500 3,000 Climbing Los Angeles Center
06:39PM 35.8944 -115.8489 272° West 367 422 21,100 2,580 Climbing Los Angeles Center
06:40PM 35.9681 -115.9600 309° West 388 447 23,900 2,400 Climbing Los Angeles Center
06:41PM 36.0403 -116.0544 313° West 388 447 26,100 1,500 Climbing Los Angeles Center
06:42PM 36.1167 -116.1536 314° West 394 453 27,000 420 Climbing Los Angeles Center
06:43PM 36.1925 -116.2531 313° West 399 459 27,000  Level Los Angeles Center
06:44PM 36.2694 -116.3542 313° West 402 463 27,000 780 Level Los Angeles Center
06:45PM 36.3611 -116.4750 313° West 402 463 28,700 1,620 Climbing Los Angeles Center
06:46PM 36.4383 -116.5764 313° West 404 465 30,400 1,560 Climbing Los Angeles Center
06:47PM 36.5164 -116.6811 313° West 410 472 32,000 1,620 Climbing Los Angeles Center
06:48PM 36.6111 -116.7750 322° Northwest 424 488 33,800 1,680 Climbing Los Angeles Center
06:49PM 36.7175 -116.8319 337° Northwest 417 480 35,500 1,500 Climbing Los Angeles Center
06:50PM 36.8222 -116.8892 336° Northwest 412 474 36,900 1,200 Climbing Los Angeles Center
06:51PM 36.9042 -116.9369 335° Northwest 410 472 37,800 600 Climbing Oakland Center
06:52PM 37.0089 -116.9950 336° Northwest 411 473 38,000 60 Climbing Oakland Center
06:53PM 37.1358 -117.0656 336° Northwest 415 478 38,000  Level Oakland Center
06:53PM 37.1583 -117.0775 337° Northwest 415 478 38,000  Level Los Angeles Center
06:54PM 37.2647 -117.1372 336° Northwest 418 481 38,000  Level Los Angeles Center
06:55PM 37.3478 -117.1836 336° Northwest 416 479 38,000  Level Oakland Center
06:56PM 37.4542 -117.2425 336° Northwest 416 479 38,000  Level Oakland Center
06:57PM 37.5603 -117.3022 336° Northwest 415 478 38,000  Level Oakland Center
06:58PM 37.6658 -117.3614 336° Northwest 414 476 38,000  Level Oakland Center
06:59PM 37.7103 -117.3875 335° Northwest 416 479 38,000  Level Los Angeles Center
06:59PM 37.7708 -117.4206 337° Northwest 410 472 38,000  Level Oakland Center
07:00PM 37.8739 -117.4792 336° Northwest 404 465 38,000  Level Oakland Center
07:01PM 37.9781 -117.5381 336° Northwest 404 465 38,000  Level Oakland Center
07:02PM 38.0856 -117.5983 336° Northwest 415 478 38,000  Level Oakland Center
07:03PM 38.1906 -117.6597 335° Northwest 411 473 38,000  Level Oakland Center
07:04PM 38.2947 -117.7189 336° Northwest 408 470 38,000  Level Oakland Center
07:05PM 38.3969 -117.7769 336° Northwest 400 460 38,000  Level Oakland Center
07:06PM 38.4975 -117.8356 335° Northwest 397 457 38,000  Level Oakland Center
07:07PM 38.5986 -117.8944 336° Northwest 397 457 38,000  Level Oakland Center
07:08PM 38.7100 -117.9589 336° Northwest 395 455 38,000  Level Oakland Center
07:09PM 38.8089 -118.0161 336° Northwest 391 450 38,000  Level Oakland Center
07:10PM 38.9053 -118.0739 335° Northwest 384 442 38,000  Level Oakland Center
07:12PM 39.0014 -118.1300 336° Northwest 381 438 38,000  Level Oakland Center
07:13PM 39.0967 -118.1864 335° Northwest 378 435 38,000  Level Oakland Center
07:14PM 39.1931 -118.2431 336° Northwest 381 438 38,000  Level Oakland Center
07:15PM 39.3092 -118.3122 335° Northwest 384 442 38,000  Level Oakland Center
07:16PM 39.4042 -118.3686 335° Northwest 381 438 38,000  Level Oakland Center
07:17PM 39.4992 -118.4250 335° Northwest 380 437 38,000  Level Oakland Center
07:18PM 39.5950 -118.4836 335° Northwest 385 443 38,000  Level Oakland Center
07:19PM 39.6911 -118.5408 335° Northwest 384 442 38,000  Level Oakland Center
07:20PM 39.7881 -118.5989 335° Northwest 384 442 38,000  Level Oakland Center
07:21PM 39.8847 -118.6575 335° Northwest 383 441 38,000  Level Oakland Center
07:22PM 39.9792 -118.7144 335° Northwest 377 434 38,000  Level Oakland Center
07:23PM 40.0917 -118.7850 334° Northwest 373 429 38,000  Level Oakland Center
07:24PM 40.1831 -118.8411 335° Northwest 365 420 38,000  Level Oakland Center
07:25PM 40.2756 -118.8972 335° Northwest 366 421 38,000  Level Oakland Center
07:26PM 40.3708 -118.9561 335° Northwest 376 433 38,000  Level Oakland Center
07:27PM 40.4658 -119.0147 335° Northwest 377 434 38,000  Level Oakland Center
07:28PM 40.5622 -119.0736 335° Northwest 379 436 38,000  Level Oakland Center
07:29PM 40.6936 -119.1550 335° Northwest 373 429 38,000  Level Oakland Center
07:30PM 40.7861 -119.2128 335° Northwest 367 422 38,000  Level Oakland Center
07:31PM 40.8825 -119.2731 335° Northwest 356 410 38,000  Level Oakland Center
07:32PM 40.9692 -119.3281 334° Northwest 358 412 38,000  Level Oakland Center
07:33PM 41.0717 -119.3919 335° Northwest 363 418 38,000  Level Oakland Center
07:34PM 41.1542 -119.4464 334° Northwest 365 420 38,000  Level Oakland Center
07:35PM 41.2094 -119.4819 334° Northwest 367 422 38,000  Level Seattle Center
07:36PM 41.3039 -119.5414 335° Northwest 374 430 38,000  Level Seattle Center
07:37PM 41.4011 -119.6017 335° Northwest 383 441 38,000  Level Seattle Center
07:38PM 41.4969 -119.6636 334° Northwest 384 442 38,000  Level Seattle Center
07:39PM 41.5989 -119.7247 336° Northwest 397 457 38,000  Level Seattle Center
07:40PM 41.6978 -119.7881 334° Northwest 396 456 38,000  Level Seattle Center
07:41PM 41.7983 -119.8533 334° Northwest 400 460 38,000  Level Seattle Center
07:42PM 41.8967 -119.9175 334° Northwest 396 456 38,000  Level Seattle Center
07:43PM 41.9947 -119.9811 334° Northwest 394 453 38,000  Level Seattle Center
07:44PM 42.0922 -120.0456 334° Northwest 392 451 38,000  Level Seattle Center
07:45PM 42.2117 -120.1228 334° Northwest 394 453 38,000  Level Seattle Center
07:46PM 42.3108 -120.1886 334° Northwest 396 456 38,000  Level Seattle Center
07:47PM 42.4108 -120.2536 334° Northwest 398 458 38,000  Level Seattle Center
07:48PM 42.5111 -120.3197 334° Northwest 400 460 38,000  Level Seattle Center
07:49PM 42.6089 -120.3844 334° Northwest 396 456 38,000  Level Seattle Center
07:50PM 42.7092 -120.4511 334° Northwest 399 459 38,000  Level Seattle Center
07:51PM 42.8086 -120.5181 334° Northwest 401 461 38,000  Level Seattle Center
07:52PM 42.9083 -120.5831 334° Northwest 399 459 38,000  Level Seattle Center
07:53PM 43.0064 -120.6511 333° Northwest 398 458 38,000  Level Seattle Center
07:54PM 43.1042 -120.7167 334° Northwest 394 453 38,000  Level Seattle Center
07:55PM 43.2022 -120.7819 334° Northwest 393 452 38,000  Level Seattle Center
07:56PM 43.3011 -120.8481 334° Northwest 393 452 38,000  Level Seattle Center
07:57PM 43.3964 -120.9117 334° Northwest 388 447 38,000  Level Seattle Center
07:58PM 43.4956 -120.9800 333° Northwest 396 456 38,000  Level Seattle Center
07:59PM 43.5967 -121.0467 334° Northwest 397 457 38,000  Level Seattle Center
08:00PM 43.6967 -121.1172 333° Northwest 401 461 38,000  Level Seattle Center
08:01PM 43.8147 -121.2025 332° Northwest 403 464 38,000  Level Seattle Center
08:02PM 43.9178 -121.2711 334° Northwest 402 463 38,000  Level Seattle Center
08:03PM 44.0167 -121.3403 333° Northwest 400 460 38,000  Level Seattle Center
08:04PM 44.1156 -121.4094 333° Northwest 398 458 38,000  Level Seattle Center
08:05PM 44.2142 -121.4786 333° Northwest 397 457 38,000  Level Seattle Center
08:06PM 44.3133 -121.5486 333° Northwest 399 459 38,000  Level Seattle Center
08:07PM 44.4131 -121.6186 333° Northwest 400 460 38,000  Level Seattle Center
08:08PM 44.5142 -121.6906 333° Northwest 405 466 38,000  Level Seattle Center
08:09PM 44.6133 -121.7619 333° Northwest 403 464 38,000  Level Seattle Center
08:10PM 44.7131 -121.8322 333° Northwest 401 461 38,000  Level Seattle Center
08:11PM 44.8214 -121.9117 333° Northwest 406 467 38,000  Level Seattle Center
08:12PM 44.9200 -121.9844 332° Northwest 404 465 38,000  Level Seattle Center
08:13PM 45.0186 -122.0550 333° Northwest 400 460 38,000  Level Seattle Center
08:14PM 45.1167 -122.1264 333° Northwest 399 459 38,000  Level Seattle Center
08:15PM 45.2147 -122.1969 333° Northwest 397 457 38,000  Level Seattle Center
08:16PM 45.3117 -122.2681 333° Northwest 395 455 38,000  Level Seattle Center
08:17PM 45.4094 -122.3394 333° Northwest 396 456 38,000  Level Seattle Center
08:18PM 45.5064 -122.4119 332° Northwest 397 457 38,000  Level Seattle Center
08:19PM 45.6031 -122.4850 332° Northwest 397 457 38,000  Level Seattle Center
08:20PM 45.7017 -122.5569 333° Northwest 399 459 38,000 -840 Level Seattle Center
08:21PM 45.8083 -122.6069 342° North 408 470 36,400 -2,340 Descending Seattle Center
08:22PM 45.9214 -122.6333 351° North 413 475 33,400 -2,820 Descending Seattle Center
08:23PM 46.0353 -122.6664 349° North 419 482 30,700 -2,460 Descending Seattle Center
08:24PM 46.1442 -122.6953 350° North 402 463 28,500 -2,400 Descending Seattle Center
08:25PM 46.2664 -122.7236 351° North 383 441 25,900 -2,220 Descending Seattle Center
08:27PM 46.3732 -122.7391 350° North  Level FlightAware Approximate
08:28PM 46.4617 -122.7728 350° North 354 407 21,800  Level Seattle Center
08:29PM 46.5544 -122.7983 349° North 345 397 19,900 -1,920 Descending Seattle Center
08:30PM 46.6436 -122.8203 350° North 331 381 18,000 -1,920 Descending Seattle Center
08:31PM 46.7336 -122.8400 351° North 330 380 16,100 -2,100 Descending Seattle Center
08:31PM 46.7725 -122.8517 348° North 330 380 15,300 -1,920 Descending Seattle Center
08:32PM 46.8242 -122.8636 351° North 332 382 14,200 -1,980 Descending Seattle Center
08:32PM 46.8628 -122.8747 349° North 331 381 13,300 -1,920 Descending Seattle Center
08:33PM 46.9133 -122.8864 351° North 329 379 12,300 -900 Descending Seattle Center
08:34PM 46.9925 -122.8769 North 293 337 11,800 -960 Descending Seattle Center
08:34PM 47.0208 -122.8419 40° Northeast 288 331 11,100 -1,680 Descending Seattle Center
08:35PM 47.0594 -122.7786 48° Northeast 287 330 10,100 -1,320 Descending Seattle Center
08:35PM 47.0689 -122.7511 63° Northeast 287 330 9,800 -1,200 Descending Seattle Center
08:36PM 47.0986 -122.6797 59° Northeast 282 325 8,900 -1,380 Descending Seattle Center
08:36PM 47.1092 -122.6547 58° Northeast 277 319 8,400 -1,500 Descending Seattle Center
08:37PM 47.1369 -122.5850 60° Northeast 274 315 7,400 -1,440 Descending Seattle Center
08:37PM 47.1547 -122.5456 56° Northeast 273 314 6,800 -1,140 Descending Seattle Center
08:38PM 47.1731 -122.4911 64° Northeast 269 310 6,300 -720 Descending Seattle Center
08:38PM 47.1742 -122.4469 88° East 251 289 6,100 -600 Descending Seattle Center
08:39PM 47.1761 -122.3939 87° East 242 278 5,700 -900 Descending Seattle Center
08:39PM 47.1789 -122.3597 83° East 226 260 5,300 -1,020 Descending Seattle Center
08:40PM 47.2081 -122.3272 37° Northeast 222 255 4,700 -1,020 Descending Seattle Center
08:40PM 47.2317 -122.3144 20° North 221 254 4,300 -900 Descending Seattle Center
08:41PM 47.2681 -122.3131 North 220 253 3,800 -1,020 Descending Seattle Center
08:41PM 47.2917 -122.3142 358° North 218 251 3,300 -1,200 Descending Seattle Center
08:42PM 47.3258 -122.3125 North 213 245 2,600 -1,200 Descending Seattle Center
08:42PM 47.3556 -122.3117 North 198 228 2,000 -1,020 Descending Seattle Center
08:43PM 47.3764 -122.3119 359° North 188 216 1,600 -840 Descending Seattle Center
08:43PM 47.3983 -122.3142 356° North 151 174 1,200 -900 Descending Seattle Center
08:44PM 47.4231 -122.3122 North 146 168 700 -540 Descending Seattle Center
08:45PM 47.4606 -122.3128 359° North 139 160 400 -300 Descending Seattle Center